Time;durP1;ratioP1;P1;durP2;ratioP2;P2;SDS_P1;SDS_P2;PMS_P1;PMS_P2;Temp;Humidity;BMP_temperature;BMP_pressure;BME280_temperature;BME280_humidity;BME280_pressure;Samples;Min_cycle;Max_cycle;Signal;HPM_P1;HPM_P2
2022/12/07 00:00:38;;;;;;;6.90;4.30;;;22.20;57.40;;;;;;215641;1274;22645;-60
2022/12/07 00:05:46;;;;;;;14.30;4.40;;;22.00;57.90;;;;;;215539;1269;24244;-60
2022/12/07 00:10:49;;;;;;;10.70;4.50;;;22.00;57.60;;;;;;217588;1273;24247;-60
2022/12/07 00:15:53;;;;;;;8.60;4.20;;;21.90;57.60;;;;;;215568;1291;22575;-60
2022/12/07 00:21:05;;;;;;;6.90;4.70;;;21.80;57.50;;;;;;215584;1292;25340;-60
2022/12/07 00:26:12;;;;;;;7.40;4.20;;;21.80;57.70;;;;;;215502;1275;22458;-60
2022/12/07 00:31:18;;;;;;;7.90;4.20;;;21.70;58.10;;;;;;214942;1276;25579;-60
2022/12/07 00:36:23;;;;;;;7.30;4.10;;;21.70;57.60;;;;;;216472;1276;25205;-60
2022/12/07 00:41:30;;;;;;;7.20;4.10;;;21.60;57.60;;;;;;216580;1269;24011;-60
2022/12/07 00:46:35;;;;;;;7.00;3.60;;;21.60;57.60;;;;;;220154;1276;22510;-61
2022/12/07 00:51:41;;;;;;;8.80;4.90;;;21.60;57.90;;;;;;215960;1276;24253;-61
2022/12/07 00:56:45;;;;;;;6.60;4.00;;;21.60;57.60;;;;;;215251;1277;22838;-60
2022/12/07 01:01:49;;;;;;;8.90;3.80;;;21.50;57.70;;;;;;215288;1278;23898;-60
2022/12/07 01:06:52;;;;;;;7.90;3.60;;;21.50;57.80;;;;;;215265;1283;26689;-61
2022/12/07 01:11:56;;;;;;;6.80;3.70;;;21.40;57.80;;;;;;215519;1293;25553;-60
2022/12/07 01:17:00;;;;;;;9.70;4.20;;;21.40;58.00;;;;;;215150;1285;26476;-60
2022/12/07 01:22:05;;;;;;;7.30;3.60;;;21.40;58.00;;;;;;215404;1276;22589;-61
2022/12/07 01:27:10;;;;;;;5.90;3.40;;;21.30;57.70;;;;;;215384;1276;25365;-60
2022/12/07 01:32:15;;;;;;;5.60;3.40;;;21.30;58.10;;;;;;215219;1275;23821;-60
2022/12/07 01:37:19;;;;;;;6.70;3.50;;;21.20;58.10;;;;;;222658;1281;23007;-61
2022/12/07 01:42:22;;;;;;;6.90;3.30;;;21.20;58.10;;;;;;218642;1282;25212;-60
2022/12/07 01:47:28;;;;;;;6.30;3.80;;;21.20;58.10;;;;;;216697;1293;25346;-60
2022/12/07 01:52:34;;;;;;;6.60;3.40;;;21.20;58.20;;;;;;215452;1283;23834;-61
2022/12/07 01:57:45;;;;;;;5.20;3.30;;;21.10;58.20;;;;;;215220;1281;24247;-61
2022/12/07 02:03:13;;;;;;;7.00;3.10;;;21.30;58.20;;;;;;215539;1276;22552;-61
2022/12/07 02:08:18;;;;;;;4.70;3.30;;;21.70;57.60;;;;;;215330;1283;24252;-60
2022/12/07 02:13:26;;;;;;;7.30;3.50;;;22.00;56.60;;;;;;215473;1269;22883;-60
2022/12/07 02:19:01;;;;;;;6.10;3.30;;;22.20;57.00;;;;;;215155;1275;23911;-60
2022/12/07 02:24:08;;;;;;;6.90;3.50;;;22.30;55.90;;;;;;215540;1287;22702;-60
2022/12/07 02:29:27;;;;;;;5.00;3.30;;;22.40;55.80;;;;;;215591;1269;22496;-60
2022/12/07 02:34:41;;;;;;;5.30;2.80;;;22.50;55.70;;;;;;215554;1297;22462;-61
2022/12/07 02:39:57;;;;;;;6.40;2.70;;;22.60;55.00;;;;;;215567;1275;22606;-61
2022/12/07 02:45:11;;;;;;;4.70;2.70;;;22.70;54.80;;;;;;215548;1278;22488;-60
2022/12/07 02:50:24;;;;;;;5.90;3.10;;;22.70;55.00;;;;;;215237;1269;22540;-60
2022/12/07 02:55:41;;;;;;;5.00;2.90;;;22.80;54.90;;;;;;215239;1276;24256;-60
2022/12/07 03:00:54;;;;;;;5.10;3.00;;;22.80;54.30;;;;;;215712;1286;25218;-60
2022/12/07 03:06:06;;;;;;;6.50;3.40;;;22.90;54.60;;;;;;215517;1282;22472;-61
2022/12/07 03:11:14;;;;;;;4.90;2.70;;;22.90;54.50;;;;;;216404;1281;25575;-61
2022/12/07 03:16:42;;;;;;;4.90;3.00;;;22.90;54.30;;;;;;215330;1277;22467;-60
2022/12/07 03:21:57;;;;;;;5.10;2.70;;;22.90;54.60;;;;;;215459;1278;25417;-60
2022/12/07 03:27:34;;;;;;;5.30;3.10;;;23.00;54.30;;;;;;215521;1292;22602;-60
2022/12/07 03:32:47;;;;;;;4.40;2.50;;;22.90;54.10;;;;;;215495;1288;22457;-61
2022/12/07 03:38:19;;;;;;;4.50;2.50;;;23.00;54.60;;;;;;215254;1281;22506;-59
2022/12/07 03:43:29;;;;;;;5.30;2.70;;;23.00;54.10;;;;;;215268;1276;25293;-60
2022/12/07 03:48:40;;;;;;;3.80;2.50;;;23.10;54.00;;;;;;215578;1292;24377;-62
2022/12/07 03:54:03;;;;;;;4.30;2.50;;;23.10;54.00;;;;;;215206;1276;22464;-61
2022/12/07 03:59:17;;;;;;;4.00;2.60;;;23.10;53.90;;;;;;215529;1276;24308;-60
2022/12/07 04:04:27;;;;;;;4.50;2.20;;;23.10;53.90;;;;;;215455;1285;22486;-60
2022/12/07 04:09:33;;;;;;;4.50;2.80;;;23.20;53.80;;;;;;215594;1283;22579;-59
2022/12/07 04:14:39;;;;;;;4.00;2.50;;;23.20;53.70;;;;;;215391;1283;24024;-60
2022/12/07 04:19:45;;;;;;;3.80;2.40;;;23.20;53.70;;;;;;215329;1281;22592;-59
2022/12/07 04:24:49;;;;;;;4.60;2.00;;;23.20;53.70;;;;;;215725;1274;22574;-60
2022/12/07 04:29:53;;;;;;;4.50;2.60;;;23.10;54.30;;;;;;215385;1283;25450;-60
2022/12/07 04:35:01;;;;;;;3.50;2.00;;;23.00;54.10;;;;;;215591;1289;23736;-59
2022/12/07 04:40:10;;;;;;;6.20;2.90;;;22.90;54.50;;;;;;215658;1294;22465;-60
2022/12/07 04:45:20;;;;;;;3.70;2.30;;;22.70;54.70;;;;;;215411;1282;23945;-61
2022/12/07 04:50:24;;;;;;;3.40;2.30;;;22.60;55.00;;;;;;215613;1269;23867;-60
2022/12/07 04:55:36;;;;;;;3.70;2.30;;;22.50;55.20;;;;;;215566;1276;26711;-60
2022/12/07 05:00:46;;;;;;;5.20;2.40;;;22.40;55.20;;;;;;215392;1276;22448;-61
2022/12/07 05:05:50;;;;;;;3.70;2.30;;;22.30;55.80;;;;;;215619;1275;25516;-59
2022/12/07 05:10:54;;;;;;;4.30;2.30;;;22.30;55.60;;;;;;215733;1289;25291;-61
2022/12/07 05:15:59;;;;;;;4.80;2.00;;;22.20;55.90;;;;;;215703;1282;24765;-60
2022/12/07 05:21:06;;;;;;;4.60;2.50;;;22.10;55.90;;;;;;215581;1269;25451;-60
2022/12/07 05:26:13;;;;;;;5.10;2.20;;;22.10;56.10;;;;;;215621;1276;22593;-60
2022/12/07 05:31:17;;;;;;;3.30;1.90;;;22.00;56.20;;;;;;215233;1282;22463;-60
2022/12/07 05:36:22;;;;;;;3.50;2.20;;;21.90;56.20;;;;;;215620;1283;24281;-58
2022/12/07 05:46:49;;;;;;;4.60;2.20;;;21.80;56.60;;;;;;215304;1282;22816;-59
2022/12/07 05:51:56;;;;;;;7.30;1.90;;;21.70;56.40;;;;;;218106;1283;22439;-59
2022/12/07 05:57:00;;;;;;;3.70;1.90;;;21.80;56.50;;;;;;215574;1276;25421;-59
2022/12/07 06:02:07;;;;;;;3.90;1.90;;;21.70;56.60;;;;;;215377;1275;22466;-60
2022/12/07 06:07:14;;;;;;;2.70;1.70;;;21.70;56.50;;;;;;215559;1277;22445;-60
2022/12/07 06:12:34;;;;;;;3.60;2.00;;;21.60;56.80;;;;;;215495;1291;23917;-59
2022/12/07 06:17:40;;;;;;;4.20;1.90;;;21.50;56.60;;;;;;215707;1276;24184;-61
2022/12/07 06:22:44;;;;;;;3.30;1.80;;;21.50;56.90;;;;;;215615;1276;23843;-60
2022/12/07 06:27:52;;;;;;;3.00;2.10;;;21.40;56.80;;;;;;215294;1284;25293;-59
2022/12/07 06:32:55;;;;;;;4.20;1.80;;;21.40;56.90;;;;;;215750;1275;27704;-61
2022/12/07 06:38:00;;;;;;;4.40;1.90;;;21.30;56.90;;;;;;215686;1291;25335;-60
2022/12/07 06:43:04;;;;;;;3.10;1.80;;;21.30;57.10;;;;;;215571;1277;22473;-59
2022/12/07 06:48:08;;;;;;;3.00;1.90;;;21.30;57.10;;;;;;215430;1293;22825;-60
2022/12/07 06:53:13;;;;;;;3.90;1.80;;;21.20;57.10;;;;;;215650;1274;22473;-60
2022/12/07 06:58:20;;;;;;;4.30;1.70;;;21.40;57.70;;;;;;215658;1283;25249;-59
2022/12/07 07:03:25;;;;;;;2.50;1.50;;;21.80;56.60;;;;;;215601;1276;25409;-60
2022/12/07 07:08:30;;;;;;;2.80;1.50;;;22.10;55.80;;;;;;215297;1271;22668;-61
2022/12/07 07:13:35;;;;;;;4.30;1.80;;;22.30;55.70;;;;;;215401;1285;22466;-61
2022/12/07 07:18:39;;;;;;;4.10;1.60;;;22.40;55.60;;;;;;215676;1275;22454;-61
2022/12/07 07:23:46;;;;;;;5.70;1.70;;;22.50;55.10;;;;;;215412;1275;23526;-60
2022/12/07 07:28:57;;;;;;;5.30;1.80;;;22.50;55.00;;;;;;215329;1276;25524;-61
2022/12/07 07:34:07;;;;;;;4.00;2.30;;;22.60;54.40;;;;;;215466;1276;23902;-59
2022/12/07 07:39:13;;;;;;;4.80;1.90;;;22.50;54.40;;;;;;215492;1269;22488;-59
2022/12/07 07:44:19;;;;;;;5.10;1.60;;;22.60;54.50;;;;;;215614;1276;22471;-59
2022/12/07 07:49:23;;;;;;;3.40;1.90;;;22.70;53.70;;;;;;215395;1277;25432;-59
2022/12/07 07:54:27;;;;;;;2.80;1.80;;;22.80;53.50;;;;;;215669;1275;23410;-59
2022/12/07 07:59:33;;;;;;;8.20;2.20;;;22.80;53.20;;;;;;215446;1289;24292;-59
2022/12/07 08:04:37;;;;;;;9.70;2.20;;;22.90;53.00;;;;;;215422;1277;22459;-60
2022/12/07 08:09:41;;;;;;;7.50;2.10;;;22.90;53.30;;;;;;215383;1276;25422;-58
2022/12/07 08:14:45;;;;;;;11.30;3.00;;;22.90;53.40;;;;;;215314;1283;22469;-58
2022/12/07 08:19:50;;;;;;;4.80;2.00;;;22.90;53.40;;;;;;215095;1276;25285;-59
2022/12/07 08:24:55;;;;;;;6.50;1.80;;;22.90;53.40;;;;;;216627;1281;23950;-59
2022/12/07 08:30:01;;;;;;;12.80;2.10;;;22.90;52.90;;;;;;215813;1290;25298;-60
2022/12/07 08:35:08;;;;;;;7.00;2.10;;;22.90;53.10;;;;;;215321;1298;23835;-60
2022/12/07 08:40:18;;;;;;;7.80;2.30;;;22.90;53.20;;;;;;215354;1285;22530;-61
2022/12/07 08:45:23;;;;;;;6.90;1.90;;;23.10;53.00;;;;;;215069;1269;22706;-60
2022/12/07 08:50:32;;;;;;;6.00;1.90;;;23.30;52.00;;;;;;215199;1284;22706;-60
2022/12/07 08:55:38;;;;;;;6.80;2.10;;;23.40;52.30;;;;;;215287;1292;22475;-58
2022/12/07 09:00:42;;;;;;;9.00;2.00;;;23.30;52.30;;;;;;215222;1292;24217;-58
2022/12/07 09:05:49;;;;;;;3.50;1.80;;;23.30;52.40;;;;;;215550;1277;22461;-58
2022/12/07 09:10:55;;;;;;;5.30;1.50;;;23.30;53.00;;;;;;215393;1275;22456;-59
2022/12/07 09:16:06;;;;;;;6.80;2.10;;;23.20;53.10;;;;;;215481;1281;22538;-59
2022/12/07 09:21:24;;;;;;;4.70;2.00;;;23.10;53.80;;;;;;215316;1279;22467;-59
2022/12/07 09:26:44;;;;;;;4.60;2.10;;;23.10;53.80;;;;;;215593;1269;24641;-58
2022/12/07 09:31:59;;;;;;;4.30;1.90;;;23.00;52.90;;;;;;215118;1275;23352;-59
2022/12/07 09:37:17;;;;;;;6.20;1.90;;;22.90;53.10;;;;;;215568;1272;24032;-59
2022/12/07 09:42:44;;;;;;;4.00;2.00;;;22.90;53.10;;;;;;215533;1277;23613;-59
2022/12/07 09:47:51;;;;;;;7.20;1.90;;;22.70;53.20;;;;;;215512;1280;25420;-59
2022/12/07 09:53:24;;;;;;;5.00;2.20;;;22.70;53.50;;;;;;215683;1288;24307;-59
2022/12/07 09:58:34;;;;;;;4.50;1.90;;;22.60;53.60;;;;;;215466;1269;22542;-59
2022/12/07 10:04:08;;;;;;;2.80;1.80;;;22.50;54.10;;;;;;215547;1279;24409;-59
2022/12/07 10:09:13;;;;;;;5.20;1.70;;;22.50;53.80;;;;;;215385;1272;25320;-58
2022/12/07 10:14:17;;;;;;;3.10;1.90;;;22.40;53.90;;;;;;215573;1284;22490;-58
2022/12/07 10:19:27;;;;;;;4.50;1.60;;;22.30;54.00;;;;;;215598;1273;25562;-59
2022/12/07 10:24:31;;;;;;;2.80;1.50;;;22.30;54.20;;;;;;215208;1269;154719;-57
2022/12/07 10:29:39;;;;;;;6.30;1.70;;;22.20;54.60;;;;;;215579;1283;23253;-58
2022/12/07 10:34:44;;;;;;;4.00;2.00;;;22.10;54.50;;;;;;215653;1283;22611;-59
2022/12/07 10:39:58;;;;;;;122.00;38.90;;;22.10;54.90;;;;;;215591;1277;25504;-57
2022/12/07 10:45:12;;;;;;;316.60;101.90;;;21.90;55.00;;;;;;215243;1295;22467;-58
2022/12/07 10:50:53;;;;;;;339.00;110.80;;;21.90;55.40;;;;;;215605;1283;25448;-58
2022/12/07 10:56:25;;;;;;;251.30;81.40;;;21.80;54.90;;;;;;215550;1283;23844;-57
2022/12/07 11:02:22;;;;;;;197.40;65.80;;;21.70;54.90;;;;;;215524;1277;25308;-59
2022/12/07 11:07:47;;;;;;;201.90;58.40;;;21.70;55.00;;;;;;214511;1288;24274;-59
2022/12/07 11:13:23;;;;;;;188.20;58.50;;;21.80;55.20;;;;;;215291;1286;22667;-60
2022/12/07 11:18:48;;;;;;;171.20;56.60;;;21.70;55.30;;;;;;215513;1292;22455;-60
2022/12/07 11:23:55;;;;;;;166.50;56.30;;;21.70;55.90;;;;;;215407;1278;24244;-59
2022/12/07 11:29:18;;;;;;;144.50;51.80;;;21.70;55.60;;;;;;215598;1276;22473;-60
2022/12/07 11:34:37;;;;;;;140.00;48.80;;;21.60;55.00;;;;;;215312;1285;24257;-60
2022/12/07 11:39:52;;;;;;;145.40;48.20;;;21.60;55.30;;;;;;215504;1281;22475;-60
2022/12/07 11:45:09;;;;;;;135.90;48.20;;;21.60;55.10;;;;;;215507;1277;25939;-59
2022/12/07 11:50:32;;;;;;;123.70;45.30;;;21.60;55.00;;;;;;215507;1283;22948;-58
2022/12/07 11:55:41;;;;;;;118.80;41.90;;;21.50;55.10;;;;;;215667;1272;23371;-59
2022/12/07 12:00:52;;;;;;;102.70;38.60;;;21.50;55.10;;;;;;215559;1283;23880;-61
2022/12/07 12:05:57;;;;;;;118.40;40.20;;;21.40;55.10;;;;;;215660;1280;22467;-58
2022/12/07 12:11:29;;;;;;;106.90;39.30;;;21.40;55.20;;;;;;215510;1283;22826;-59
2022/12/07 12:17:18;;;;;;;97.70;34.70;;;21.50;54.80;;;;;;215589;1282;24781;-59
2022/12/07 12:22:49;;;;;;;100.70;34.70;;;21.90;54.10;;;;;;215112;1277;22940;-58
2022/12/07 12:27:57;;;;;;;93.40;34.90;;;22.20;53.10;;;;;;215670;1276;22459;-60
2022/12/07 12:33:14;;;;;;;100.90;35.70;;;22.40;53.10;;;;;;215595;1288;25385;-59
2022/12/07 12:38:47;;;;;;;97.80;32.90;;;22.60;52.50;;;;;;215361;1280;24228;-60
2022/12/07 12:44:24;;;;;;;89.50;32.50;;;22.60;52.10;;;;;;215282;1276;22506;-59
2022/12/07 12:50:06;;;;;;;90.60;31.00;;;22.80;52.00;;;;;;215206;1280;22664;-59
2022/12/07 12:55:21;;;;;;;81.90;30.40;;;22.80;51.60;;;;;;215701;1282;22444;-59
2022/12/07 13:00:33;;;;;;;81.20;30.90;;;22.90;51.60;;;;;;215677;1283;22469;-59
2022/12/07 13:05:44;;;;;;;75.00;28.30;;;22.90;51.90;;;;;;215608;1283;22581;-59
2022/12/07 13:10:48;;;;;;;69.30;26.50;;;23.00;51.70;;;;;;215320;1297;23748;-60
2022/12/07 13:16:14;;;;;;;64.10;25.70;;;23.00;51.60;;;;;;215543;1297;23949;-59
2022/12/07 13:21:20;;;;;;;65.90;25.80;;;22.90;51.80;;;;;;215385;1277;24231;-59
2022/12/07 13:26:44;;;;;;;62.70;23.00;;;22.90;51.90;;;;;;215455;1276;26296;-58
2022/12/07 13:31:56;;;;;;;58.50;23.70;;;23.00;51.90;;;;;;215423;1280;22471;-58
2022/12/07 13:37:14;;;;;;;61.40;23.90;;;23.00;51.40;;;;;;215125;1280;23906;-58
2022/12/07 13:42:31;;;;;;;53.20;22.60;;;23.00;51.60;;;;;;215530;1283;22470;-57
2022/12/07 13:47:56;;;;;;;47.40;20.30;;;23.00;51.50;;;;;;215282;1286;22474;-58
2022/12/07 13:53:07;;;;;;;46.80;19.80;;;23.10;51.50;;;;;;215592;1285;24322;-60
2022/12/07 13:58:12;;;;;;;;;;;23.10;51.40;;;;;;215434;1298;25383;-58
2022/12/07 14:03:29;;;;;;;53.80;21.00;;;23.10;51.40;;;;;;215343;1282;22458;-60
2022/12/07 14:08:36;;;;;;;45.20;20.40;;;23.20;51.30;;;;;;215559;1284;22512;-58
2022/12/07 14:14:01;;;;;;;43.90;18.60;;;23.20;51.30;;;;;;215492;1280;25332;-59
2022/12/07 14:19:45;;;;;;;40.00;16.60;;;23.20;51.20;;;;;;215263;1275;22510;-60
2022/12/07 14:25:19;;;;;;;36.80;18.10;;;23.30;51.60;;;;;;215391;1275;22475;-58
2022/12/07 14:30:32;;;;;;;37.00;16.80;;;23.40;50.80;;;;;;215401;1288;22469;-60
2022/12/07 14:35:42;;;;;;;40.20;17.00;;;23.40;51.00;;;;;;215371;1281;22473;-60
2022/12/07 14:40:48;;;;;;;35.30;16.90;;;23.30;51.10;;;;;;215387;1297;23211;-60
2022/12/07 14:46:17;;;;;;;35.10;15.90;;;23.10;51.30;;;;;;215354;1282;25514;-57
2022/12/07 14:51:27;;;;;;;30.50;15.10;;;22.90;51.70;;;;;;215193;1282;22702;-59
2022/12/07 14:57:11;;;;;;;32.60;14.80;;;22.80;52.00;;;;;;215562;1291;22596;-60
2022/12/07 15:02:15;;;;;;;96.20;32.60;;;22.70;52.20;;;;;;215237;1291;23880;-60
2022/12/07 15:07:22;;;;;;;166.90;56.80;;;22.60;52.40;;;;;;215151;1282;22475;-59
2022/12/07 15:12:41;;;;;;;330.90;105.60;;;22.70;52.40;;;;;;215212;1276;23137;-59
2022/12/07 15:17:46;;;;;;;235.30;72.00;;;22.60;52.60;;;;;;215343;1280;22493;-59
2022/12/07 15:22:54;;;;;;;260.10;84.10;;;22.60;52.50;;;;;;215350;1297;22460;-57
2022/12/07 15:27:59;;;;;;;258.40;80.00;;;22.60;52.90;;;;;;215644;1276;22890;-59
2022/12/07 15:33:14;;;;;;;224.80;75.20;;;22.50;52.80;;;;;;215628;1283;22634;-59
2022/12/07 15:38:31;;;;;;;226.10;72.50;;;22.50;52.60;;;;;;215408;1286;22448;-60
2022/12/07 15:49:38;;;;;;;191.30;67.90;;;22.40;52.40;;;;;;215206;1278;24243;-58
2022/12/07 15:54:49;;;;;;;183.00;64.50;;;22.20;52.50;;;;;;215668;1293;22537;-59
2022/12/07 15:59:54;;;;;;;186.60;64.40;;;22.10;52.40;;;;;;215723;1272;22530;-58
2022/12/07 16:05:11;;;;;;;168.40;62.00;;;22.00;52.80;;;;;;215530;1276;22481;-59
2022/12/07 16:10:17;;;;;;;161.60;60.50;;;21.90;52.50;;;;;;215316;1280;22702;-59
2022/12/07 16:15:28;;;;;;;162.80;59.80;;;21.90;52.80;;;;;;215148;1283;23793;-59
2022/12/07 16:20:34;;;;;;;161.80;56.50;;;21.80;53.30;;;;;;215302;1283;22570;-58
2022/12/07 16:25:38;;;;;;;150.20;54.00;;;21.70;52.80;;;;;;215141;1275;22994;-58
2022/12/07 16:37:16;;;;;;;135.20;48.80;;;21.60;52.10;;;;;;214877;1282;22584;-58
2022/12/07 16:42:21;;;;;;;121.40;47.00;;;21.60;52.00;;;;;;215399;1283;24324;-59
2022/12/07 16:47:28;;;;;;;129.80;45.20;;;21.50;51.80;;;;;;215357;1283;23886;-57
2022/12/07 16:52:36;;;;;;;110.40;42.70;;;21.50;51.80;;;;;;215366;1288;22530;-58
2022/12/07 16:57:41;;;;;;;106.70;39.10;;;21.40;52.10;;;;;;215274;1275;24011;-58
2022/12/07 17:02:45;;;;;;;104.70;40.10;;;21.30;51.60;;;;;;215374;1277;22593;-58
2022/12/07 17:07:49;;;;;;;101.00;37.00;;;21.40;50.90;;;;;;215351;1293;23541;-58
2022/12/07 17:12:53;;;;;;;89.00;32.80;;;21.70;50.40;;;;;;215365;1277;22576;-58
2022/12/07 17:17:59;;;;;;;89.60;34.10;;;22.00;49.50;;;;;;215575;1272;23094;-58
2022/12/07 17:23:05;;;;;;;89.20;30.40;;;22.20;49.10;;;;;;216622;1276;22738;-57
2022/12/07 17:28:09;;;;;;;94.50;32.60;;;22.20;49.20;;;;;;215438;1272;23840;-60
2022/12/07 17:33:15;;;;;;;72.00;29.10;;;22.30;49.40;;;;;;215579;1282;25651;-58
2022/12/07 17:38:33;;;;;;;67.90;29.10;;;22.50;49.30;;;;;;215547;1290;23868;-59
2022/12/07 17:43:38;;;;;;;70.00;26.70;;;22.60;49.80;;;;;;215207;1283;22663;-59
2022/12/07 17:48:44;;;;;;;72.70;28.00;;;22.60;50.40;;;;;;215570;1281;22522;-59
2022/12/07 17:53:50;;;;;;;68.20;27.00;;;22.70;50.70;;;;;;215524;1283;22461;-59
2022/12/07 17:59:14;;;;;;;65.00;24.20;;;22.70;50.20;;;;;;215491;1277;23065;-59
2022/12/07 18:04:26;;;;;;;66.60;24.20;;;22.80;50.10;;;;;;215475;1273;22442;-60
2022/12/07 18:09:30;;;;;;;61.50;24.20;;;22.80;51.40;;;;;;215651;1275;22704;-60
2022/12/07 18:15:00;;;;;;;61.80;25.40;;;22.80;52.40;;;;;;215264;1279;22547;-55
2022/12/07 18:20:10;;;;;;;84.40;37.90;;;22.90;51.80;;;;;;223852;1279;22094;-55
2022/12/07 18:25:14;;;;;;;69.20;31.10;;;23.00;51.10;;;;;;216604;1273;24267;-55
2022/12/07 18:30:25;;;;;;;61.80;27.60;;;23.10;50.80;;;;;;215608;1278;23882;-56
2022/12/07 18:36:05;;;;;;;57.50;24.70;;;23.10;50.60;;;;;;215580;1282;23702;-57
2022/12/07 18:41:13;;;;;;;58.80;25.50;;;23.10;50.90;;;;;;215520;1274;22714;-58
2022/12/07 18:46:35;;;;;;;53.70;23.50;;;23.10;51.00;;;;;;215758;1272;23043;-61
2022/12/07 18:51:48;;;;;;;51.00;21.10;;;23.00;52.10;;;;;;215695;1273;22781;-58
2022/12/07 18:56:54;;;;;;;49.50;22.10;;;22.90;52.30;;;;;;215717;1279;23104;-57
2022/12/07 19:02:06;;;;;;;47.50;20.70;;;22.70;52.10;;;;;;215700;1279;22463;-57
2022/12/07 19:07:26;;;;;;;46.60;20.30;;;22.70;51.70;;;;;;215582;1281;23194;-59
2022/12/07 19:12:31;;;;;;;42.90;18.10;;;22.60;52.10;;;;;;215491;1275;24465;-57
2022/12/07 19:17:36;;;;;;;50.00;18.00;;;22.50;51.90;;;;;;215728;1273;22472;-57
2022/12/07 19:22:43;;;;;;;41.20;17.50;;;22.40;52.70;;;;;;215748;1286;23018;-59
2022/12/07 19:27:56;;;;;;;44.70;16.20;;;22.40;53.00;;;;;;215450;1282;24243;-58
2022/12/07 19:33:00;;;;;;;42.70;15.30;;;22.30;52.60;;;;;;215353;1279;24380;-59
2022/12/07 19:38:22;;;;;;;37.10;14.40;;;22.20;52.90;;;;;;215622;1279;23281;-59
2022/12/07 19:43:29;;;;;;;37.00;14.20;;;22.10;53.10;;;;;;215737;1272;24291;-58
2022/12/07 19:48:34;;;;;;;78.70;29.90;;;22.00;53.20;;;;;;215646;1274;24365;-58
2022/12/07 19:53:38;;;;;;;153.50;52.10;;;22.00;53.40;;;;;;215710;1274;23846;-56
2022/12/07 19:58:42;;;;;;;186.10;64.40;;;22.00;54.50;;;;;;215492;1269;24318;-58
2022/12/07 20:03:56;;;;;;;224.10;71.10;;;21.90;56.10;;;;;;215660;1274;25536;-59
2022/12/07 20:09:04;;;;;;;214.20;69.90;;;21.90;56.30;;;;;;215537;1274;22488;-58
2022/12/07 20:14:10;;;;;;;187.50;65.50;;;21.80;55.80;;;;;;215625;1274;23934;-58
2022/12/07 20:19:15;;;;;;;183.10;61.60;;;21.80;54.90;;;;;;215712;1275;24023;-58
2022/12/07 20:24:39;;;;;;;185.50;62.30;;;21.70;54.30;;;;;;215618;1275;25060;-58
2022/12/07 20:29:49;;;;;;;177.80;59.40;;;21.70;54.60;;;;;;215697;1283;22606;-59
2022/12/07 20:34:56;;;;;;;147.20;52.20;;;21.60;54.60;;;;;;215553;1281;24174;-57
2022/12/07 20:40:13;;;;;;;151.00;51.40;;;21.60;54.90;;;;;;215414;1282;22463;-62
2022/12/07 20:45:24;;;;;;;142.00;51.10;;;21.60;55.20;;;;;;215341;1297;25329;-60
2022/12/07 20:50:31;;;;;;;135.70;45.10;;;21.60;54.70;;;;;;215744;1279;22545;-59
2022/12/07 20:55:45;;;;;;;128.40;46.40;;;21.60;54.10;;;;;;215540;1281;24254;-58
2022/12/07 21:01:11;;;;;;;123.80;44.20;;;21.50;54.00;;;;;;215498;1274;23766;-59
2022/12/07 21:06:18;;;;;;;122.50;41.70;;;21.50;53.60;;;;;;215694;1276;25245;-59
2022/12/07 21:11:24;;;;;;;108.40;39.70;;;21.40;53.70;;;;;;215623;1283;22575;-58
2022/12/07 21:16:30;;;;;;;101.80;38.90;;;21.30;53.50;;;;;;215624;1274;22486;-61
2022/12/07 21:21:34;;;;;;;93.10;37.30;;;21.20;53.50;;;;;;215768;1273;24057;-62
2022/12/07 21:26:40;;;;;;;94.40;36.30;;;21.20;53.30;;;;;;215419;1276;22499;-60
2022/12/07 21:31:45;;;;;;;97.70;36.60;;;21.20;53.50;;;;;;215541;1267;22853;-59
2022/12/07 21:36:49;;;;;;;87.00;32.50;;;21.00;53.40;;;;;;215646;1266;26479;-59
2022/12/07 21:42:13;;;;;;;83.50;30.80;;;21.10;53.20;;;;;;215641;1266;24298;-59
2022/12/07 21:47:27;;;;;;;81.00;31.00;;;21.40;52.60;;;;;;214733;1278;22472;-58
2022/12/07 21:52:45;;;;;;;79.20;28.80;;;21.70;51.70;;;;;;214798;1278;26596;-59
2022/12/07 21:58:01;;;;;;;74.10;28.50;;;21.90;51.10;;;;;;214787;1278;22587;-59
2022/12/07 22:03:42;;;;;;;69.80;26.80;;;22.00;50.50;;;;;;214755;1279;22526;-59
2022/12/07 22:08:49;;;;;;;61.70;25.50;;;22.10;50.20;;;;;;214299;1274;23006;-58
2022/12/07 22:19:24;;;;;;;58.30;22.20;;;22.30;49.70;;;;;;214625;1279;25285;-58
2022/12/07 22:24:29;;;;;;;53.50;22.40;;;22.40;49.60;;;;;;210781;1291;5535821;-58
2022/12/07 22:29:46;;;;;;;50.30;21.20;;;22.50;50.80;;;;;;214653;1286;23938;-58
2022/12/07 22:35:05;;;;;;;45.30;19.60;;;22.50;49.80;;;;;;214989;1279;24389;-58
2022/12/07 22:40:12;;;;;;;43.10;18.60;;;22.40;49.50;;;;;;215468;1274;25468;-59
2022/12/07 22:45:16;;;;;;;41.80;19.20;;;22.40;49.70;;;;;;215712;1283;22638;-59
2022/12/07 22:50:22;;;;;;;43.10;18.90;;;22.50;50.30;;;;;;215371;1270;25509;-60
2022/12/07 22:55:49;;;;;;;45.80;16.40;;;22.60;50.60;;;;;;215559;1283;23674;-58
2022/12/07 23:01:11;;;;;;;39.10;17.50;;;22.70;50.90;;;;;;215561;1285;25443;-59
2022/12/07 23:06:35;;;;;;;36.20;16.40;;;22.80;51.00;;;;;;215528;1274;25493;-60
2022/12/07 23:17:07;;;;;;;30.50;15.00;;;22.90;51.10;;;;;;215419;1274;22499;-59
2022/12/07 23:22:11;;;;;;;33.40;15.40;;;23.00;51.50;;;;;;215749;1266;23057;-59
2022/12/07 23:27:19;;;;;;;32.60;15.60;;;23.10;50.90;;;;;;215693;1279;23010;-58
2022/12/07 23:32:34;;;;;;;33.40;13.50;;;23.20;51.50;;;;;;215549;1297;23866;-58
2022/12/07 23:37:44;;;;;;;39.30;16.00;;;23.10;51.00;;;;;;215696;1297;24241;-58
2022/12/07 23:42:57;;;;;;;29.10;13.70;;;23.20;51.10;;;;;;215739;1277;22599;-57
2022/12/07 23:48:21;;;;;;;33.00;13.70;;;23.30;51.60;;;;;;215708;1283;22472;-60
2022/12/07 23:53:31;;;;;;;33.60;12.30;;;23.30;51.20;;;;;;215571;1282;27572;-58
2022/12/07 23:58:36;;;;;;;30.30;13.90;;;23.40;51.10;;;;;;215551;1274;22466;-58
